Time;durP1;ratioP1;P1;durP2;ratioP2;P2;SDS_P1;SDS_P2;PMS_P1;PMS_P2;Temp;Humidity;BMP_temperature;BMP_pressure;BME280_temperature;BME280_humidity;BME280_pressure;Samples;Min_cycle;Max_cycle;Signal;HPM_P1;HPM_P2
2021/09/12 00:00:43;;;;;;;1999.90;999.90;;;;;;;;;;5035237;28;20043;-88
2021/09/12 00:03:10;;;;;;;1999.90;999.90;;;;;;;;;;5034397;28;20034;-86
2021/09/12 00:05:36;;;;;;;1999.90;999.90;;;;;;;;;;5035431;28;20488;-88
2021/09/12 00:08:03;;;;;;;1999.90;999.90;;;;;;;;;;5034764;28;20063;-89
2021/09/12 00:10:29;;;;;;;1999.90;999.90;;;;;;;;;;5035005;28;20116;-89
2021/09/12 00:12:56;;;;;;;1999.90;999.90;;;;;;;;;;5034823;28;20063;-85
2021/09/12 00:15:22;;;;;;;1999.90;999.90;;;;;;;;;;5034649;28;20026;-88
2021/09/12 00:17:48;;;;;;;1999.90;999.90;;;;;;;;;;5035503;28;20366;-87
2021/09/12 00:20:14;;;;;;;1999.90;999.90;;;;;;;;;;5034869;28;20488;-86
2021/09/12 00:22:40;;;;;;;1999.90;999.90;;;;;;;;;;5035149;28;20543;-86
2021/09/12 00:25:07;;;;;;;1999.90;999.90;;;;;;;;;;5034888;28;20113;-88
2021/09/12 00:27:33;;;;;;;1999.90;999.90;;;;;;;;;;5036251;28;20472;-89
2021/09/12 00:29:59;;;;;;;1999.90;999.90;;;;;;;;;;5035479;28;20022;-87
2021/09/12 00:32:25;;;;;;;1999.90;999.90;;;;;;;;;;5035328;28;20535;-84
2021/09/12 00:34:52;;;;;;;1999.90;999.90;;;;;;;;;;5035147;28;20052;-87
2021/09/12 00:37:18;;;;;;;1999.90;999.90;;;;;;;;;;5035483;28;20052;-87
2021/09/12 00:39:44;;;;;;;1999.90;999.90;;;;;;;;;;5036295;28;20037;-89
2021/09/12 00:42:10;;;;;;;1999.90;999.90;;;;;;;;;;5036279;28;20469;-88
2021/09/12 00:44:36;;;;;;;1999.90;999.90;;;;;;;;;;5037599;28;20041;-86
2021/09/12 00:47:10;;;;;;;1999.90;999.90;;;;;;;;;;5040054;28;20026;-90
2021/09/12 00:49:36;;;;;;;1999.90;999.90;;;;;;;;;;5038746;28;20040;-85
2021/09/12 00:52:03;;;;;;;1999.90;999.90;;;;;;;;;;5038293;28;20021;-86
2021/09/12 00:54:31;;;;;;;1999.90;999.90;;;;;;;;;;5038353;28;20473;-87
2021/09/12 00:56:57;;;;;;;1999.90;999.90;;;;;;;;;;5038669;28;20026;-88
2021/09/12 00:59:23;;;;;;;1999.90;999.90;;;;;;;;;;5038641;28;20025;-88
2021/09/12 01:01:49;;;;;;;1999.90;999.90;;;;;;;;;;5038753;28;20021;-89
2021/09/12 01:04:16;;;;;;;1999.90;999.90;;;;;;;;;;5037827;28;20025;-85
2021/09/12 01:06:43;;;;;;;1999.90;999.90;;;;;;;;;;5038083;28;20033;-86
2021/09/12 01:09:09;;;;;;;1999.90;999.90;;;;;;;;;;5037579;28;20034;-90
2021/09/12 01:11:35;;;;;;;1999.90;999.90;;;;;;;;;;5039362;28;20033;-88
2021/09/12 01:14:01;;;;;;;1999.90;999.90;;;;;;;;;;5038027;28;20017;-83
2021/09/12 01:16:27;;;;;;;1999.90;999.90;;;;;;;;;;5038053;28;20527;-88
2021/09/12 01:18:53;;;;;;;1999.90;999.90;;;;;;;;;;5038047;28;20030;-90
2021/09/12 01:21:21;;;;;;;1999.90;999.90;;;;;;;;;;5038038;28;20365;-88
2021/09/12 01:23:47;;;;;;;1999.90;999.90;;;;;;;;;;5037704;28;20476;-88
2021/09/12 01:26:14;;;;;;;1999.90;999.90;;;;;;;;;;5038005;28;20029;-88
2021/09/12 01:28:41;;;;;;;1999.90;999.90;;;;;;;;;;5036942;28;20069;-87
2021/09/12 01:31:07;;;;;;;1999.90;999.90;;;;;;;;;;5037803;28;20457;-83
2021/09/12 01:33:33;;;;;;;1999.90;999.90;;;;;;;;;;5037321;28;20025;-90
2021/09/12 01:35:59;;;;;;;1999.90;999.90;;;;;;;;;;5037671;28;20504;-88
2021/09/12 01:38:25;;;;;;;1999.90;999.90;;;;;;;;;;5037496;28;20420;-85
2021/09/12 01:40:51;;;;;;;1999.90;999.90;;;;;;;;;;5037391;28;20067;-86
2021/09/12 01:43:20;;;;;;;1999.90;999.90;;;;;;;;;;5037401;28;20033;-88
2021/09/12 01:45:47;;;;;;;1999.90;999.90;;;;;;;;;;5036992;28;20385;-86
2021/09/12 01:48:13;;;;;;;1999.90;999.90;;;;;;;;;;5038796;28;20037;-84
2021/09/12 01:50:39;;;;;;;1999.90;999.90;;;;;;;;;;5037447;28;20021;-84
2021/09/12 01:53:05;;;;;;;1999.90;999.90;;;;;;;;;;5037284;28;20106;-88
2021/09/12 01:55:31;;;;;;;1999.90;999.90;;;;;;;;;;5037220;28;20022;-86
2021/09/12 01:57:57;;;;;;;1999.90;999.90;;;;;;;;;;5037179;28;20022;-85
2021/09/12 02:00:23;;;;;;;1999.90;999.90;;;;;;;;;;5037308;28;20049;-86
2021/09/12 02:02:49;;;;;;;1999.90;999.90;;;;;;;;;;5036883;28;20033;-85
2021/09/12 02:05:15;;;;;;;1999.90;999.90;;;;;;;;;;5038448;28;20048;-85
2021/09/12 02:07:41;;;;;;;1999.90;999.90;;;;;;;;;;5037213;28;20060;-88
2021/09/12 02:10:07;;;;;;;1999.90;999.90;;;;;;;;;;5036593;28;20034;-88
2021/09/12 02:12:33;;;;;;;1999.90;999.90;;;;;;;;;;5036543;28;20025;-84
2021/09/12 02:14:59;;;;;;;1999.90;999.90;;;;;;;;;;5037936;28;20036;-84
2021/09/12 02:17:25;;;;;;;1999.90;999.90;;;;;;;;;;5037060;28;20083;-87
2021/09/12 02:19:51;;;;;;;1999.90;999.90;;;;;;;;;;5037496;28;20528;-85
2021/09/12 02:22:17;;;;;;;1999.90;999.90;;;;;;;;;;5037535;28;20029;-86
2021/09/12 02:24:43;;;;;;;1999.90;999.90;;;;;;;;;;5036418;28;20519;-88
2021/09/12 02:27:09;;;;;;;1999.90;999.90;;;;;;;;;;5036141;28;20034;-85
2021/09/12 02:29:36;;;;;;;1999.90;999.90;;;;;;;;;;5036066;28;20029;-86
2021/09/12 02:32:02;;;;;;;1999.90;999.90;;;;;;;;;;5036343;28;20021;-86
2021/09/12 02:34:28;;;;;;;1999.90;999.90;;;;;;;;;;5036211;28;20037;-88
2021/09/12 02:36:54;;;;;;;1999.90;999.90;;;;;;;;;;5036598;28;20167;-85
2021/09/12 02:39:20;;;;;;;1999.90;999.90;;;;;;;;;;5037527;28;20045;-83
2021/09/12 02:41:46;;;;;;;1999.90;999.90;;;;;;;;;;5036131;28;20107;-88
2021/09/12 02:44:12;;;;;;;1999.90;999.90;;;;;;;;;;5036148;28;20032;-85
2021/09/12 02:46:38;;;;;;;1999.90;999.90;;;;;;;;;;5036088;28;20121;-88
2021/09/12 02:49:04;;;;;;;1999.90;999.90;;;;;;;;;;5036386;28;20389;-85
2021/09/12 02:51:30;;;;;;;1999.90;999.90;;;;;;;;;;5035653;28;20115;-86
2021/09/12 02:53:56;;;;;;;1999.90;999.90;;;;;;;;;;5036032;28;20053;-88
2021/09/12 02:56:22;;;;;;;1999.90;999.90;;;;;;;;;;5035885;28;20033;-88
2021/09/12 02:58:48;;;;;;;1999.90;999.90;;;;;;;;;;5036154;28;20040;-87
2021/09/12 03:01:14;;;;;;;1999.90;999.90;;;;;;;;;;5036076;28;20021;-85
2021/09/12 03:03:40;;;;;;;1999.90;999.90;;;;;;;;;;5035892;28;20022;-83
2021/09/12 03:06:06;;;;;;;1999.90;999.90;;;;;;;;;;5035857;28;20021;-88
2021/09/12 03:08:32;;;;;;;1999.90;999.90;;;;;;;;;;5036239;28;20079;-86
2021/09/12 03:10:58;;;;;;;1999.90;999.90;;;;;;;;;;5035606;28;20461;-87
2021/09/12 03:13:24;;;;;;;1999.90;999.90;;;;;;;;;;5035855;28;20639;-85
2021/09/12 03:15:50;;;;;;;1999.90;999.90;;;;;;;;;;5038500;28;20027;-86
2021/09/12 03:18:16;;;;;;;1999.90;999.90;;;;;;;;;;5039544;28;20072;-85
2021/09/12 03:20:43;;;;;;;1999.90;999.90;;;;;;;;;;5045182;28;20109;-85
2021/09/12 03:23:09;;;;;;;1999.90;999.90;;;;;;;;;;5042538;28;20599;-87
2021/09/12 03:25:35;;;;;;;1999.90;999.90;;;;;;;;;;5042025;28;20053;-87
2021/09/12 03:28:01;;;;;;;1999.90;999.90;;;;;;;;;;5036100;28;20037;-88
2021/09/12 03:30:27;;;;;;;1999.90;999.90;;;;;;;;;;5034360;28;20021;-82
2021/09/12 03:32:53;;;;;;;1999.90;999.90;;;;;;;;;;5034536;28;20026;-85
2021/09/12 03:35:19;;;;;;;1999.90;999.90;;;;;;;;;;5033969;28;20021;-84
2021/09/12 03:37:45;;;;;;;1999.90;999.90;;;;;;;;;;5033470;28;20025;-83
2021/09/12 03:40:11;;;;;;;1999.90;999.90;;;;;;;;;;5033517;28;20133;-83
2021/09/12 03:42:37;;;;;;;1999.90;999.90;;;;;;;;;;5033741;28;20036;-84
2021/09/12 03:45:04;;;;;;;1999.90;999.90;;;;;;;;;;5034470;28;20022;-83
2021/09/12 03:47:30;;;;;;;1999.90;999.90;;;;;;;;;;5033348;28;20026;-86
2021/09/12 03:49:56;;;;;;;1999.90;999.90;;;;;;;;;;5032929;28;20029;-82
2021/09/12 03:52:22;;;;;;;1999.90;999.90;;;;;;;;;;5033003;28;20025;-83
2021/09/12 03:54:48;;;;;;;1999.90;999.90;;;;;;;;;;5033078;28;20030;-84
2021/09/12 03:57:14;;;;;;;1999.90;999.90;;;;;;;;;;5034244;28;20021;-83
2021/09/12 03:59:40;;;;;;;1999.90;999.90;;;;;;;;;;5032982;28;20079;-84
2021/09/12 04:02:06;;;;;;;1999.90;999.90;;;;;;;;;;5032946;28;20025;-82
2021/09/12 04:04:32;;;;;;;1999.90;999.90;;;;;;;;;;5033062;28;20029;-84
2021/09/12 04:06:58;;;;;;;1999.90;999.90;;;;;;;;;;5032976;28;20523;-83
2021/09/12 04:09:24;;;;;;;1999.90;999.90;;;;;;;;;;5033319;28;20095;-82
2021/09/12 04:11:50;;;;;;;1999.90;999.90;;;;;;;;;;5033156;28;20030;-84
2021/09/12 04:14:16;;;;;;;1999.90;999.90;;;;;;;;;;5034531;28;20033;-84
2021/09/12 04:16:43;;;;;;;1999.90;999.90;;;;;;;;;;5033461;28;20022;-85
2021/09/12 04:19:09;;;;;;;1999.90;999.90;;;;;;;;;;5034338;28;20022;-84
2021/09/12 04:21:35;;;;;;;1999.90;999.90;;;;;;;;;;5037788;28;20030;-84
2021/09/12 04:24:01;;;;;;;1999.90;999.90;;;;;;;;;;5037634;28;20069;-83
2021/09/12 04:26:27;;;;;;;1999.90;999.90;;;;;;;;;;5037272;28;20029;-83
2021/09/12 04:28:54;;;;;;;1999.90;999.90;;;;;;;;;;5037346;28;20044;-84
2021/09/12 04:31:20;;;;;;;1999.90;999.90;;;;;;;;;;5037303;28;20032;-82
2021/09/12 04:33:46;;;;;;;1999.90;999.90;;;;;;;;;;5038853;28;20032;-81
2021/09/12 04:36:12;;;;;;;1999.90;999.90;;;;;;;;;;5038608;28;20033;-81
2021/09/12 04:38:38;;;;;;;1999.90;999.90;;;;;;;;;;5037416;28;20052;-82
2021/09/12 04:41:04;;;;;;;1999.90;999.90;;;;;;;;;;5037526;28;20029;-82
2021/09/12 04:43:30;;;;;;;1999.90;999.90;;;;;;;;;;5037402;28;20484;-83
2021/09/12 04:45:56;;;;;;;1999.90;999.90;;;;;;;;;;5037360;28;20025;-85
2021/09/12 04:48:22;;;;;;;1999.90;999.90;;;;;;;;;;5038424;28;20064;-83
2021/09/12 04:50:48;;;;;;;1999.90;999.90;;;;;;;;;;5037191;28;20026;-83
2021/09/12 04:53:15;;;;;;;1999.90;999.90;;;;;;;;;;5036905;28;20416;-85
2021/09/12 04:55:41;;;;;;;1999.90;999.90;;;;;;;;;;5037076;28;20025;-85
2021/09/12 04:58:07;;;;;;;1999.90;999.90;;;;;;;;;;5038080;28;20028;-82
2021/09/12 05:00:33;;;;;;;1999.90;999.90;;;;;;;;;;5036901;28;20033;-83
2021/09/12 05:02:59;;;;;;;1999.90;999.90;;;;;;;;;;5036811;28;20033;-82
2021/09/12 05:05:25;;;;;;;1999.90;999.90;;;;;;;;;;5038158;28;20022;-84
2021/09/12 05:07:54;;;;;;;1999.90;999.90;;;;;;;;;;5036882;28;20037;-85
2021/09/12 05:10:20;;;;;;;1999.90;999.90;;;;;;;;;;5036740;28;20056;-82
2021/09/12 05:12:46;;;;;;;1999.90;999.90;;;;;;;;;;5038068;28;20021;-84
2021/09/12 05:15:12;;;;;;;1999.90;999.90;;;;;;;;;;5036793;28;20057;-83
2021/09/12 05:17:38;;;;;;;1999.90;999.90;;;;;;;;;;5036861;28;20099;-84
2021/09/12 05:20:06;;;;;;;1999.90;999.90;;;;;;;;;;5036541;28;20028;-85
2021/09/12 05:22:32;;;;;;;1999.90;999.90;;;;;;;;;;5037817;28;20507;-83
2021/09/12 05:24:58;;;;;;;1999.90;999.90;;;;;;;;;;5036475;28;20481;-84
2021/09/12 05:27:24;;;;;;;1999.90;999.90;;;;;;;;;;5038180;28;20025;-87
2021/09/12 05:29:50;;;;;;;1999.90;999.90;;;;;;;;;;5036271;28;20056;-83
2021/09/12 05:32:16;;;;;;;1999.90;999.90;;;;;;;;;;5036283;28;20079;-82
2021/09/12 05:34:42;;;;;;;1999.90;999.90;;;;;;;;;;5034833;28;20029;-80
2021/09/12 05:37:08;;;;;;;1999.90;999.90;;;;;;;;;;5035609;28;20514;-80
2021/09/12 05:39:34;;;;;;;1999.90;999.90;;;;;;;;;;5038067;28;20070;-81
2021/09/12 05:42:00;;;;;;;1999.90;999.90;;;;;;;;;;5037530;28;20022;-82
2021/09/12 05:44:26;;;;;;;1999.90;999.90;;;;;;;;;;5035127;28;20029;-80
2021/09/12 05:46:52;;;;;;;1999.90;999.90;;;;;;;;;;5034848;28;20025;-81
2021/09/12 05:49:19;;;;;;;1999.90;999.90;;;;;;;;;;5034880;28;20362;-83
2021/09/12 05:51:45;;;;;;;1999.90;999.90;;;;;;;;;;5034693;28;20018;-80
2021/09/12 05:54:12;;;;;;;1999.90;999.90;;;;;;;;;;5035804;28;20056;-81
2021/09/12 05:56:38;;;;;;;1999.90;999.90;;;;;;;;;;5034765;28;20128;-82
2021/09/12 05:59:04;;;;;;;1999.90;999.90;;;;;;;;;;5034390;28;20032;-81
2021/09/12 06:01:30;;;;;;;1999.90;999.90;;;;;;;;;;5034552;28;20024;-86
2021/09/12 06:03:56;;;;;;;1999.90;999.90;;;;;;;;;;5034613;28;20067;-82
2021/09/12 06:06:22;;;;;;;1999.90;999.90;;;;;;;;;;5034791;28;20017;-83
2021/09/12 06:08:48;;;;;;;1999.90;999.90;;;;;;;;;;5034527;28;20040;-82
2021/09/12 06:11:14;;;;;;;1999.90;999.90;;;;;;;;;;5034373;28;20022;-85
2021/09/12 06:13:40;;;;;;;1999.90;999.90;;;;;;;;;;5035333;28;20117;-82
2021/09/12 06:16:07;;;;;;;1999.90;999.90;;;;;;;;;;5035426;28;20091;-84
2021/09/12 06:18:33;;;;;;;1999.90;999.90;;;;;;;;;;5034022;28;20132;-81
2021/09/12 06:20:59;;;;;;;1999.90;999.90;;;;;;;;;;5035719;28;20014;-83
2021/09/12 06:23:25;;;;;;;1999.90;999.90;;;;;;;;;;5034152;28;20024;-80
2021/09/12 06:25:51;;;;;;;1999.90;999.90;;;;;;;;;;5033947;28;20038;-83
2021/09/12 06:28:17;;;;;;;1999.90;999.90;;;;;;;;;;5033727;28;20073;-81
2021/09/12 06:30:43;;;;;;;1999.90;999.90;;;;;;;;;;5033747;28;20024;-84
2021/09/12 06:33:09;;;;;;;1999.90;999.90;;;;;;;;;;5033973;28;20025;-82
2021/09/12 06:35:35;;;;;;;1999.90;999.90;;;;;;;;;;5033953;28;20128;-81
2021/09/12 06:38:01;;;;;;;1999.90;999.90;;;;;;;;;;5034238;28;20061;-83
2021/09/12 06:40:30;;;;;;;1999.90;999.90;;;;;;;;;;5034012;28;20049;-84
2021/09/12 06:43:01;;;;;;;1999.90;999.90;;;;;;;;;;5033161;28;20021;-84
2021/09/12 06:45:27;;;;;;;1999.90;999.90;;;;;;;;;;5034310;28;20545;-81
2021/09/12 06:47:54;;;;;;;1999.90;999.90;;;;;;;;;;5033855;28;20041;-82
2021/09/12 06:50:20;;;;;;;1999.90;999.90;;;;;;;;;;5033821;28;20033;-83
2021/09/12 06:52:47;;;;;;;1999.90;999.90;;;;;;;;;;5034068;28;20473;-85
2021/09/12 06:55:13;;;;;;;1999.90;999.90;;;;;;;;;;5034069;28;20033;-82
2021/09/12 06:57:39;;;;;;;1999.90;999.90;;;;;;;;;;5034070;28;20017;-82
2021/09/12 07:00:09;;;;;;;1999.90;999.90;;;;;;;;;;5033735;28;20025;-84
2021/09/12 07:02:39;;;;;;;1999.90;999.90;;;;;;;;;;5034080;28;20045;-82
2021/09/12 07:05:06;;;;;;;1999.90;999.90;;;;;;;;;;5035000;28;20029;-81
2021/09/12 07:07:32;;;;;;;1999.90;999.90;;;;;;;;;;5033568;28;20018;-84
2021/09/12 07:09:58;;;;;;;1999.90;999.90;;;;;;;;;;5033589;28;20036;-81
2021/09/12 07:12:24;;;;;;;1999.90;999.90;;;;;;;;;;5033124;28;20029;-82
2021/09/12 07:14:51;;;;;;;1999.90;999.90;;;;;;;;;;5034746;28;20026;-81
2021/09/12 07:17:17;;;;;;;1999.90;999.90;;;;;;;;;;5034241;28;20603;-85
2021/09/12 07:19:43;;;;;;;1999.90;999.90;;;;;;;;;;5036683;28;20148;-86
2021/09/12 07:22:09;;;;;;;1999.90;999.90;;;;;;;;;;5039252;28;20038;-89
2021/09/12 07:24:35;;;;;;;1999.90;999.90;;;;;;;;;;5039963;28;20550;-84
2021/09/12 07:27:01;;;;;;;1999.90;999.90;;;;;;;;;;5033571;28;20060;-84
2021/09/12 07:29:27;;;;;;;1999.90;999.90;;;;;;;;;;5033562;28;20045;-85
2021/09/12 07:31:55;;;;;;;1999.90;999.90;;;;;;;;;;5033044;28;20370;-86
2021/09/12 07:34:22;;;;;;;1999.90;999.90;;;;;;;;;;5033068;28;20045;-88
2021/09/12 07:36:48;;;;;;;1999.90;999.90;;;;;;;;;;5033103;28;20028;-85
2021/09/12 07:39:14;;;;;;;1999.90;999.90;;;;;;;;;;5033247;28;20025;-89
2021/09/12 07:41:40;;;;;;;1999.90;999.90;;;;;;;;;;5032729;28;20022;-79
2021/09/12 07:44:06;;;;;;;1999.90;999.90;;;;;;;;;;5034007;28;20392;-86
2021/09/12 07:46:32;;;;;;;1999.90;999.90;;;;;;;;;;5033142;28;20022;-87
2021/09/12 07:48:58;;;;;;;1999.90;999.90;;;;;;;;;;5034227;28;20038;-87
2021/09/12 07:51:24;;;;;;;1999.90;999.90;;;;;;;;;;5032940;28;20070;-85
2021/09/12 07:53:50;;;;;;;1999.90;999.90;;;;;;;;;;5032565;28;20119;-82
2021/09/12 07:56:16;;;;;;;1999.90;999.90;;;;;;;;;;5033680;28;20454;-78
2021/09/12 07:58:42;;;;;;;1999.90;999.90;;;;;;;;;;5032439;28;20017;-80
2021/09/12 08:01:09;;;;;;;1999.90;999.90;;;;;;;;;;5032879;28;20032;-87
2021/09/12 08:03:35;;;;;;;1999.90;999.90;;;;;;;;;;5032520;28;20029;-82
2021/09/12 08:06:01;;;;;;;1999.90;999.90;;;;;;;;;;5032875;28;20026;-82
2021/09/12 08:08:27;;;;;;;1999.90;999.90;;;;;;;;;;5032584;28;20128;-88
2021/09/12 08:10:53;;;;;;;1999.90;999.90;;;;;;;;;;5032862;28;20048;-89
2021/09/12 08:13:19;;;;;;;1999.90;999.90;;;;;;;;;;5032725;28;20097;-88
2021/09/12 08:15:45;;;;;;;1999.90;999.90;;;;;;;;;;5032649;28;20087;-79
2021/09/12 08:18:11;;;;;;;1999.90;999.90;;;;;;;;;;5032512;28;20476;-84
2021/09/12 08:20:37;;;;;;;1999.90;999.90;;;;;;;;;;5033744;28;20043;-86
2021/09/12 08:23:04;;;;;;;1999.90;999.90;;;;;;;;;;5034116;28;20021;-83
2021/09/12 08:25:30;;;;;;;1999.90;999.90;;;;;;;;;;5032225;28;20052;-81
2021/09/12 08:27:56;;;;;;;1999.90;999.90;;;;;;;;;;5032621;28;20041;-85
2021/09/12 08:30:22;;;;;;;1999.90;999.90;;;;;;;;;;5032640;28;20465;-86
2021/09/12 08:32:48;;;;;;;1999.90;999.90;;;;;;;;;;5032726;28;20049;-84
2021/09/12 08:35:14;;;;;;;1999.90;999.90;;;;;;;;;;5032257;28;20025;-86
2021/09/12 08:37:40;;;;;;;1999.90;999.90;;;;;;;;;;5032319;28;20028;-85
2021/09/12 08:40:07;;;;;;;1999.90;999.90;;;;;;;;;;5032537;28;20514;-82
2021/09/12 08:42:33;;;;;;;1999.90;999.90;;;;;;;;;;5031896;28;20018;-85
2021/09/12 08:44:59;;;;;;;1999.90;999.90;;;;;;;;;;5032128;28;20444;-85
2021/09/12 08:47:28;;;;;;;1999.90;999.90;;;;;;;;;;5031810;28;20125;-83
2021/09/12 08:49:54;;;;;;;1999.90;999.90;;;;;;;;;;5031195;28;20057;-81
2021/09/12 08:52:20;;;;;;;1999.90;999.90;;;;;;;;;;5032325;28;20461;-81
2021/09/12 08:54:46;;;;;;;1999.90;999.90;;;;;;;;;;5031470;28;20030;-79
2021/09/12 08:57:12;;;;;;;1999.90;999.90;;;;;;;;;;5032608;28;20030;-79
2021/09/12 08:59:39;;;;;;;1999.90;999.90;;;;;;;;;;5032410;28;20465;-77
2021/09/12 09:02:05;;;;;;;1999.90;999.90;;;;;;;;;;5032241;28;20029;-78
2021/09/12 09:04:33;;;;;;;1999.90;999.90;;;;;;;;;;5030874;28;20026;-80
2021/09/12 09:07:09;;;;;;;1999.90;999.90;;;;;;;;;;5035692;28;20026;-79
2021/09/12 09:09:48;;;;;;;1999.90;999.90;;;;;;;;;;5034613;28;20413;-81
2021/09/12 09:12:25;;;;;;;1999.90;999.90;;;;;;;;;;5034501;28;20086;-79
2021/09/12 09:15:02;;;;;;;1999.90;999.90;;;;;;;;;;5034661;28;20025;-80
2021/09/12 09:17:28;;;;;;;1999.90;999.90;;;;;;;;;;5035762;28;20087;-86
2021/09/12 09:19:55;;;;;;;1999.90;999.90;;;;;;;;;;5036359;28;20351;-78
2021/09/12 09:22:29;;;;;;;1999.90;999.90;;;;;;;;;;5034474;28;20025;-79
2021/09/12 09:24:57;;;;;;;1999.90;999.90;;;;;;;;;;5033924;28;20362;-79
2021/09/12 09:27:23;;;;;;;1999.90;999.90;;;;;;;;;;5034166;28;20040;-83
2021/09/12 09:29:54;;;;;;;1999.90;999.90;;;;;;;;;;5035436;28;20036;-84
2021/09/12 09:32:20;;;;;;;1999.90;999.90;;;;;;;;;;5035542;28;20021;-83
2021/09/12 09:34:46;;;;;;;1999.90;999.90;;;;;;;;;;5035833;28;20031;-83
2021/09/12 09:37:13;;;;;;;1999.90;999.90;;;;;;;;;;5035331;28;20027;-83
2021/09/12 09:39:42;;;;;;;1999.90;999.90;;;;;;;;;;5036954;28;20067;-80
2021/09/12 09:42:27;;;;;;;1999.90;999.90;;;;;;;;;;5034970;28;20030;-79
2021/09/12 09:45:04;;;;;;;1999.90;999.90;;;;;;;;;;5034943;28;20370;-85
2021/09/12 09:47:30;;;;;;;1999.90;999.90;;;;;;;;;;5035038;28;20469;-78
2021/09/12 09:50:08;;;;;;;1999.90;999.90;;;;;;;;;;5036343;28;20075;-85
2021/09/12 09:52:34;;;;;;;1999.90;999.90;;;;;;;;;;5035276;28;20048;-88
2021/09/12 09:55:00;;;;;;;1999.90;999.90;;;;;;;;;;5035007;28;20190;-82
2021/09/12 09:57:27;;;;;;;1999.90;999.90;;;;;;;;;;5035011;28;20026;-87
2021/09/12 09:59:53;;;;;;;1999.90;999.90;;;;;;;;;;5034889;28;20464;-87
2021/09/12 10:02:19;;;;;;;1999.90;999.90;;;;;;;;;;5034942;28;20488;-87
2021/09/12 10:04:46;;;;;;;1999.90;999.90;;;;;;;;;;5034746;28;20030;-79
2021/09/12 10:07:12;;;;;;;1999.90;999.90;;;;;;;;;;5035790;28;20362;-86
2021/09/12 10:09:39;;;;;;;1999.90;999.90;;;;;;;;;;5034369;28;20048;-88
2021/09/12 10:12:11;;;;;;;1999.90;999.90;;;;;;;;;;5034365;28;20025;-86
2021/09/12 10:14:45;;;;;;;1999.90;999.90;;;;;;;;;;5034490;28;20029;-82
2021/09/12 10:17:15;;;;;;;1999.90;999.90;;;;;;;;;;5034343;28;20074;-83
2021/09/12 10:19:43;;;;;;;1999.90;999.90;;;;;;;;;;5034844;28;20021;-83
2021/09/12 10:22:14;;;;;;;1999.90;999.90;;;;;;;;;;5034592;28;20026;-83
2021/09/12 10:24:58;;;;;;;1999.90;999.90;;;;;;;;;;5034406;28;20124;-85
2021/09/12 10:27:50;;;;;;;1999.90;999.90;;;;;;;;;;5035758;28;20029;-86
2021/09/12 10:30:38;;;;;;;1999.90;999.90;;;;;;;;;;5035593;28;20045;-86
2021/09/12 10:33:26;;;;;;;1999.90;999.90;;;;;;;;;;5035331;28;20034;-85
2021/09/12 10:35:52;;;;;;;1999.90;999.90;;;;;;;;;;5034717;28;20032;-86
2021/09/12 10:38:28;;;;;;;1999.90;999.90;;;;;;;;;;5034353;28;20385;-88
2021/09/12 10:40:54;;;;;;;1999.90;999.90;;;;;;;;;;5034465;28;20025;-89
2021/09/12 10:43:43;;;;;;;1999.90;999.90;;;;;;;;;;5034281;28;20461;-88
2021/09/12 10:46:12;;;;;;;1999.90;999.90;;;;;;;;;;5031516;28;20059;-86
2021/09/12 10:48:38;;;;;;;1999.90;999.90;;;;;;;;;;5035265;28;20043;-87
2021/09/12 10:51:04;;;;;;;1999.90;999.90;;;;;;;;;;5036218;28;20518;-86
2021/09/12 10:53:45;;;;;;;1999.90;999.90;;;;;;;;;;5037633;28;20030;-88
2021/09/12 10:56:18;;;;;;;1999.90;999.90;;;;;;;;;;5038961;28;20026;-83
2021/09/12 10:58:52;;;;;;;1999.90;999.90;;;;;;;;;;5036356;28;20033;-88
2021/09/12 11:01:29;;;;;;;1999.90;999.90;;;;;;;;;;5034891;28;20499;-84
2021/09/12 11:03:56;;;;;;;1999.90;999.90;;;;;;;;;;5045107;28;20056;-87
2021/09/12 11:06:22;;;;;;;1999.90;999.90;;;;;;;;;;5048072;28;20117;-82
2021/09/12 11:08:48;;;;;;;1999.90;999.90;;;;;;;;;;5046227;28;20041;-84
2021/09/12 11:11:14;;;;;;;1999.90;999.90;;;;;;;;;;5037334;28;20477;-85
2021/09/12 11:13:41;;;;;;;1999.90;999.90;;;;;;;;;;5036675;28;20473;-83
2021/09/12 11:16:08;;;;;;;1999.90;999.90;;;;;;;;;;5034066;28;20025;-86
2021/09/12 11:18:54;;;;;;;1999.90;999.90;;;;;;;;;;5034478;28;20025;-88
2021/09/12 11:21:40;;;;;;;1999.90;999.90;;;;;;;;;;5033768;28;20037;-78
2021/09/12 11:24:07;;;;;;;1999.90;999.90;;;;;;;;;;5033806;28;20040;-81
2021/09/12 11:26:39;;;;;;;1999.90;999.90;;;;;;;;;;5035058;28;20026;-85
2021/09/12 11:29:06;;;;;;;1999.90;999.90;;;;;;;;;;5034133;28;20033;-85
2021/09/12 11:31:33;;;;;;;1999.90;999.90;;;;;;;;;;5033231;28;20096;-87
2021/09/12 11:34:00;;;;;;;1999.90;999.90;;;;;;;;;;5033330;28;20750;-86
2021/09/12 11:36:26;;;;;;;1999.90;999.90;;;;;;;;;;5033259;28;20188;-80
2021/09/12 11:38:59;;;;;;;1999.90;999.90;;;;;;;;;;5033112;28;20025;-86
2021/09/12 11:41:26;;;;;;;1999.90;999.90;;;;;;;;;;5033244;28;20014;-86
2021/09/12 11:43:55;;;;;;;1999.90;999.90;;;;;;;;;;5033117;28;20029;-85
2021/09/12 11:46:21;;;;;;;1999.90;999.90;;;;;;;;;;5033647;28;20093;-84
2021/09/12 11:48:58;;;;;;;1999.90;999.90;;;;;;;;;;5032335;28;20029;-86
2021/09/12 11:51:28;;;;;;;1999.90;999.90;;;;;;;;;;5033157;28;20025;-84
2021/09/12 11:54:07;;;;;;;1999.90;999.90;;;;;;;;;;5032837;28;20025;-86
2021/09/12 11:56:33;;;;;;;1999.90;999.90;;;;;;;;;;5032996;28;20025;-87
2021/09/12 11:59:00;;;;;;;1999.90;999.90;;;;;;;;;;5033079;28;20026;-86
2021/09/12 12:01:26;;;;;;;1999.90;999.90;;;;;;;;;;5033135;28;20142;-79
2021/09/12 12:03:52;;;;;;;1999.90;999.90;;;;;;;;;;5032789;28;20029;-83
2021/09/12 12:06:18;;;;;;;1999.90;999.90;;;;;;;;;;5032968;28;20125;-86
2021/09/12 12:09:05;;;;;;;1999.90;999.90;;;;;;;;;;5033105;28;20550;-88
2021/09/12 12:11:32;;;;;;;1999.90;999.90;;;;;;;;;;5034561;28;20108;-82
2021/09/12 12:13:58;;;;;;;1999.90;999.90;;;;;;;;;;5032920;28;20108;-84
2021/09/12 12:16:24;;;;;;;1999.90;999.90;;;;;;;;;;5033727;28;20088;-80
2021/09/12 12:19:07;;;;;;;1999.90;999.90;;;;;;;;;;5032164;28;20461;-79
2021/09/12 12:21:34;;;;;;;1999.90;999.90;;;;;;;;;;5032293;28;20025;-78
2021/09/12 12:24:09;;;;;;;1999.90;999.90;;;;;;;;;;5034154;28;20485;-82
2021/09/12 12:26:43;;;;;;;1999.90;999.90;;;;;;;;;;5033343;28;20486;-83
2021/09/12 12:29:09;;;;;;;1999.90;999.90;;;;;;;;;;5033547;28;20029;-82
2021/09/12 12:31:37;;;;;;;1999.90;999.90;;;;;;;;;;5034366;28;20139;-84
2021/09/12 12:34:03;;;;;;;1999.90;999.90;;;;;;;;;;5033364;28;20030;-85
2021/09/12 12:36:29;;;;;;;1999.90;999.90;;;;;;;;;;5033470;28;20045;-87
2021/09/12 12:38:55;;;;;;;1999.90;999.90;;;;;;;;;;5033492;28;20033;-84
2021/09/12 12:41:24;;;;;;;1999.90;999.90;;;;;;;;;;5036082;28;20029;-84
2021/09/12 12:43:50;;;;;;;1999.90;999.90;;;;;;;;;;5037336;28;20029;-85
2021/09/12 12:46:16;;;;;;;1999.90;999.90;;;;;;;;;;5037199;28;20365;-84
2021/09/12 12:48:43;;;;;;;1999.90;999.90;;;;;;;;;;5036915;28;20107;-87
2021/09/12 12:51:11;;;;;;;1999.90;999.90;;;;;;;;;;5037081;28;20376;-85
2021/09/12 12:53:42;;;;;;;1999.90;999.90;;;;;;;;;;5036801;28;20534;-86
2021/09/12 12:56:10;;;;;;;1999.90;999.90;;;;;;;;;;5036766;28;20117;-86
2021/09/12 12:58:36;;;;;;;1999.90;999.90;;;;;;;;;;5037030;28;20041;-85
2021/09/12 13:01:03;;;;;;;1999.90;999.90;;;;;;;;;;5036833;28;20022;-85
2021/09/12 13:03:30;;;;;;;1999.90;999.90;;;;;;;;;;5036478;28;20081;-85
2021/09/12 13:06:00;;;;;;;1999.90;999.90;;;;;;;;;;5036488;28;20037;-84
2021/09/12 13:08:26;;;;;;;1999.90;999.90;;;;;;;;;;5036948;28;20288;-85
2021/09/12 13:10:53;;;;;;;1999.90;999.90;;;;;;;;;;5036483;28;20029;-83
2021/09/12 13:13:19;;;;;;;1999.90;999.90;;;;;;;;;;5036314;28;20021;-84
2021/09/12 13:15:46;;;;;;;1999.90;999.90;;;;;;;;;;5036722;28;20399;-87
2021/09/12 13:18:12;;;;;;;1999.90;999.90;;;;;;;;;;5036536;28;20448;-85
2021/09/12 13:20:39;;;;;;;1999.90;999.90;;;;;;;;;;5036883;28;20026;-85
2021/09/12 13:23:05;;;;;;;1999.90;999.90;;;;;;;;;;5036512;28;20057;-85
2021/09/12 13:25:32;;;;;;;1999.90;999.90;;;;;;;;;;5036313;28;20097;-84
2021/09/12 13:27:58;;;;;;;1999.90;999.90;;;;;;;;;;5036278;28;20099;-85
2021/09/12 13:30:24;;;;;;;1999.90;999.90;;;;;;;;;;5036298;28;20491;-84
2021/09/12 13:32:50;;;;;;;1999.90;999.90;;;;;;;;;;5036147;28;20120;-85
2021/09/12 13:35:17;;;;;;;1999.90;999.90;;;;;;;;;;5036161;28;20358;-86
2021/09/12 13:37:43;;;;;;;1999.90;999.90;;;;;;;;;;5036105;28;20072;-85
2021/09/12 13:40:09;;;;;;;1999.90;999.90;;;;;;;;;;5035815;28;20376;-85
2021/09/12 13:42:36;;;;;;;1999.90;999.90;;;;;;;;;;5035952;28;20465;-85